createdAt,value
2023-05-12T00:01:50.753Z,78.95
2023-05-12T00:04:20.217Z,76.55
2023-05-12T00:06:49.399Z,77.80
2023-05-12T00:09:19.199Z,75.38
2023-05-12T00:11:49.585Z,80.03
2023-05-12T00:14:19.310Z,77.70
2023-05-12T00:16:52.932Z,79.75
2023-05-12T00:19:22.996Z,76.55
2023-05-12T00:21:52.541Z,77.88
2023-05-12T00:24:21.819Z,77.20
2023-05-12T00:26:51.066Z,78.90
2023-05-12T00:29:20.943Z,80.53
2023-05-12T00:31:50.280Z,78.43
2023-05-12T00:34:19.718Z,82.72
2023-05-12T00:36:48.884Z,79.22
2023-05-12T00:39:17.983Z,78.05
2023-05-12T00:41:49.101Z,77.53
2023-05-12T00:44:19.584Z,77.78
2023-05-12T00:46:48.781Z,79.18
2023-05-12T00:49:18.339Z,79.32
2023-05-12T00:51:48.090Z,80.82
2023-05-12T00:54:18.412Z,81.40
2023-05-12T00:56:47.730Z,82.88
2023-05-12T00:59:17.537Z,83.65
2023-05-12T01:01:48.176Z,84.85
2023-05-12T01:04:18.611Z,83.32
2023-05-12T01:07:06.772Z,83.20
2023-05-12T01:09:36.284Z,86.68
2023-05-12T01:12:05.810Z,86.18
2023-05-12T01:14:36.531Z,87.00
2023-05-12T01:17:13.726Z,85.57
2023-05-12T01:19:51.877Z,85.50
2023-05-12T01:22:21.743Z,86.25
2023-05-12T01:25:01.090Z,85.13
2023-05-12T01:27:32.879Z,85.43
2023-05-12T01:30:05.528Z,86.05
2023-05-12T01:32:37.967Z,88.05
2023-05-12T01:35:08.559Z,84.18
2023-05-12T01:37:40.465Z,84.90
2023-05-12T01:40:10.895Z,85.82
2023-05-12T01:42:43.152Z,83.22
2023-05-12T01:45:14.251Z,84.05
2023-05-12T01:47:43.660Z,82.57
2023-05-12T01:50:12.908Z,78.18
2023-05-12T01:52:42.839Z,76.68
2023-05-12T01:55:14.502Z,71.93
2023-05-12T01:57:54.630Z,69.55
2023-05-12T02:00:25.181Z,69.47
2023-05-12T02:02:58.080Z,67.70
2023-05-12T02:05:27.469Z,66.03
2023-05-12T02:07:57.093Z,65.45
2023-05-12T02:10:26.395Z,63.28
2023-05-12T02:12:55.735Z,62.20
2023-05-12T02:15:25.126Z,60.05
2023-05-12T02:17:56.540Z,59.88
2023-05-12T02:20:27.179Z,58.28
2023-05-12T02:22:57.418Z,59.25
2023-05-12T02:25:26.797Z,56.88
2023-05-12T02:27:55.910Z,55.95
2023-05-12T02:30:25.558Z,53.67
2023-05-12T02:32:54.872Z,53.45
2023-05-12T02:35:24.127Z,55.22
2023-05-12T02:37:53.919Z,55.35
2023-05-12T02:40:23.402Z,51.38
2023-05-12T02:42:52.718Z,49.95
2023-05-12T02:45:22.073Z,44.45
2023-05-12T02:47:51.465Z,43.00
2023-05-12T02:50:22.835Z,46.22
2023-05-12T02:52:52.968Z,45.58
2023-05-12T02:55:22.618Z,46.28
2023-05-12T02:57:51.769Z,44.58
2023-05-12T03:00:21.312Z,41.90
2023-05-12T03:02:50.856Z,41.60
2023-05-12T03:05:20.332Z,39.58
2023-05-12T03:07:53.249Z,36.38
2023-05-12T03:10:23.459Z,37.80
2023-05-12T03:12:52.833Z,38.03
2023-05-12T03:15:22.717Z,36.83
2023-05-12T03:17:52.907Z,32.38
2023-05-12T03:20:22.140Z,29.90
2023-05-12T03:22:51.760Z,26.25
2023-05-12T03:25:21.291Z,21.52
2023-05-12T03:27:50.470Z,21.55
2023-05-12T03:30:19.958Z,21.65
2023-05-12T03:32:49.559Z,22.48
2023-05-12T03:35:18.948Z,23.17
2023-05-12T03:37:48.100Z,23.20
2023-05-12T03:40:19.990Z,24.83
2023-05-12T03:42:49.583Z,25.00
2023-05-12T03:45:20.618Z,24.10
2023-05-12T03:47:50.697Z,24.15
2023-05-12T03:50:20.242Z,25.20
2023-05-12T03:52:50.390Z,26.63
2023-05-12T03:55:19.745Z,28.88
2023-05-12T03:57:50.611Z,28.55
2023-05-12T04:00:20.814Z,28.98
2023-05-12T04:02:50.432Z,28.33
2023-05-12T04:05:19.610Z,29.10
2023-05-12T04:07:49.584Z,27.73
2023-05-12T04:10:19.158Z,26.35
2023-05-12T04:12:48.757Z,27.35
2023-05-12T04:15:18.652Z,23.75
2023-05-12T04:17:48.423Z,22.92
2023-05-12T04:20:18.178Z,20.45
2023-05-12T04:22:48.605Z,20.88
2023-05-12T04:25:17.979Z,19.35
2023-05-12T04:27:47.144Z,17.92
2023-05-12T04:30:18.471Z,20.63
2023-05-12T04:32:49.540Z,19.15
2023-05-12T04:35:19.084Z,18.90
2023-05-12T04:37:48.334Z,18.02
2023-05-12T04:40:19.026Z,16.00
2023-05-12T04:42:48.852Z,16.15
2023-05-12T04:45:19.137Z,16.02
2023-05-12T04:47:48.937Z,14.48
2023-05-12T04:50:18.400Z,12.85
2023-05-12T04:52:47.655Z,12.38
2023-05-12T04:55:19.171Z,13.82
2023-05-12T04:57:48.620Z,14.00
2023-05-12T05:00:18.712Z,15.52
2023-05-12T05:02:48.899Z,16.65
2023-05-12T05:05:19.639Z,15.88
2023-05-12T05:07:49.836Z,13.25
2023-05-12T05:10:19.480Z,12.20
2023-05-12T05:12:50.097Z,11.20
2023-05-12T05:15:20.783Z,11.23
2023-05-12T05:17:50.991Z,10.23
2023-05-12T05:20:20.582Z,9.73
2023-05-12T05:22:50.512Z,10.35
2023-05-12T05:25:21.527Z,11.13
2023-05-12T05:27:51.142Z,9.02
2023-05-12T05:30:20.829Z,7.50
2023-05-12T05:32:50.119Z,8.10
2023-05-12T05:35:20.870Z,7.97
2023-05-12T05:37:54.672Z,8.27
2023-05-12T05:40:24.772Z,7.32
2023-05-12T05:42:54.195Z,8.57
2023-05-12T05:45:23.566Z,7.82
2023-05-12T05:47:54.474Z,7.80
2023-05-12T05:50:24.367Z,7.03
2023-05-12T05:52:56.225Z,7.53
2023-05-12T05:55:27.059Z,7.10
2023-05-12T05:57:56.395Z,6.90
2023-05-12T06:00:26.732Z,6.63
2023-05-12T06:02:56.375Z,6.65
2023-05-12T06:05:25.882Z,6.97
2023-05-12T06:07:55.337Z,7.10
2023-05-12T06:10:24.982Z,7.22
2023-05-12T06:12:54.204Z,8.00
2023-05-12T06:15:23.884Z,8.93
2023-05-12T06:17:53.775Z,8.02
2023-05-12T06:20:24.348Z,8.23
2023-05-12T06:22:53.848Z,7.82
2023-05-12T06:25:23.160Z,7.65
2023-05-12T06:27:54.041Z,7.28
2023-05-12T06:30:23.603Z,6.18
2023-05-12T06:32:57.280Z,6.30
2023-05-12T06:35:26.622Z,6.72
2023-05-12T06:37:56.145Z,6.70
2023-05-12T06:40:25.195Z,7.82
2023-05-12T06:42:55.423Z,6.13
2023-05-12T06:47:58.818Z,6.97
2023-05-12T06:50:29.444Z,5.97
2023-05-12T06:52:59.060Z,6.93
2023-05-12T06:55:28.498Z,6.47
2023-05-12T06:57:57.645Z,6.55
2023-05-12T07:00:28.014Z,6.07
2023-05-12T07:02:57.361Z,5.90
2023-05-12T07:05:27.481Z,5.55
2023-05-12T07:07:56.677Z,5.30
2023-05-12T07:10:26.003Z,5.55
2023-05-12T07:12:57.201Z,4.95
2023-05-12T07:15:32.498Z,4.97
2023-05-12T07:18:02.795Z,5.47
2023-05-12T07:20:32.873Z,5.43
2023-05-12T07:23:02.541Z,5.10
2023-05-12T07:25:32.855Z,4.82
2023-05-12T07:28:02.315Z,5.68
2023-05-12T07:30:31.760Z,5.22
2023-05-12T07:33:02.347Z,5.72
2023-05-12T07:35:32.190Z,5.47
2023-05-12T07:38:04.265Z,5.63
2023-05-12T07:40:33.789Z,4.60
2023-05-12T07:43:03.724Z,4.28
2023-05-12T07:45:33.280Z,4.20
2023-05-12T07:48:02.496Z,4.95
2023-05-12T07:50:32.785Z,5.03
2023-05-12T07:53:01.865Z,4.38
2023-05-12T07:55:32.059Z,4.00
2023-05-12T07:58:02.286Z,4.07
2023-05-12T08:00:31.774Z,4.68
2023-05-12T08:03:01.458Z,5.38
2023-05-12T08:05:30.948Z,4.60
2023-05-12T08:08:00.594Z,4.55
2023-05-12T08:10:31.182Z,5.00
2023-05-12T08:13:00.615Z,5.35
2023-05-12T08:15:29.722Z,5.53
2023-05-12T08:17:59.636Z,5.72
2023-05-12T08:20:28.853Z,5.38
2023-05-12T08:22:58.283Z,4.90
2023-05-12T08:25:29.116Z,5.10
2023-05-12T08:28:00.347Z,5.50
2023-05-12T08:30:30.141Z,5.00
2023-05-12T08:32:59.251Z,5.47
2023-05-12T08:35:29.206Z,6.45
2023-05-12T08:38:00.362Z,5.65
2023-05-12T08:40:33.079Z,6.40
2023-05-12T08:45:40.526Z,6.60
2023-05-12T08:48:16.713Z,6.80
2023-05-12T08:50:47.404Z,6.82
2023-05-12T08:53:20.283Z,7.00
2023-05-12T08:57:08.147Z,7.50
2023-05-12T08:58:42.057Z,7.40
2023-05-12T09:01:15.797Z,7.80
2023-05-12T09:03:45.250Z,8.15
2023-05-12T09:06:15.442Z,8.00
2023-05-12T09:08:46.998Z,8.23
2023-05-12T09:11:17.778Z,8.38
2023-05-12T09:14:05.848Z,8.25
2023-05-12T09:16:36.874Z,8.27
2023-05-12T09:19:07.453Z,9.25
2023-05-12T09:21:36.965Z,8.38
2023-05-12T09:24:09.186Z,8.90
2023-05-12T09:26:50.316Z,8.27
2023-05-12T09:29:31.481Z,8.32
2023-05-12T09:32:03.924Z,9.15
2023-05-12T09:34:42.163Z,9.97
2023-05-12T09:37:13.213Z,8.45
2023-05-12T09:39:46.311Z,8.20
2023-05-12T09:42:16.957Z,8.88
2023-05-12T09:44:48.461Z,9.05
2023-05-12T09:47:18.919Z,8.55
2023-05-12T09:49:54.172Z,9.10
2023-05-12T09:52:24.093Z,9.00
2023-05-12T09:54:54.460Z,9.93
2023-05-12T09:57:26.253Z,9.82
2023-05-12T09:59:56.279Z,9.80
2023-05-12T10:02:27.860Z,8.95
2023-05-12T10:05:04.225Z,9.10
2023-05-12T10:07:36.066Z,9.43
2023-05-12T10:10:09.163Z,9.18
2023-05-12T10:12:41.890Z,10.05
2023-05-12T10:15:13.865Z,9.02
2023-05-12T10:17:46.817Z,9.57
2023-05-12T10:20:19.189Z,8.95
2023-05-12T10:22:52.770Z,8.90
2023-05-12T10:25:23.962Z,9.70
2023-05-12T10:27:56.053Z,9.75
2023-05-12T10:30:28.133Z,9.77
2023-05-12T10:33:00.539Z,9.98
2023-05-12T10:35:42.532Z,9.45
2023-05-12T10:38:14.536Z,8.23
2023-05-12T10:41:01.586Z,8.63
2023-05-12T10:43:40.952Z,8.85
2023-05-12T10:46:25.761Z,8.15
2023-05-12T10:49:05.278Z,8.20
2023-05-12T10:52:01.195Z,8.13
2023-05-12T10:54:31.968Z,8.63
2023-05-12T10:57:04.079Z,9.35
2023-05-12T10:59:36.212Z,8.25
2023-05-12T11:02:17.236Z,8.30
2023-05-12T11:04:58.023Z,8.40
2023-05-12T11:07:31.437Z,8.80
2023-05-12T11:10:05.460Z,9.75
2023-05-12T11:15:10.208Z,7.68
2023-05-12T11:17:42.667Z,8.18
2023-05-12T11:22:55.641Z,8.10
2023-05-12T11:25:31.431Z,8.18
2023-05-12T11:28:03.557Z,8.90
2023-05-12T11:30:34.500Z,8.52
2023-05-12T11:33:05.934Z,8.23
2023-05-12T11:35:36.184Z,8.27
2023-05-12T11:38:20.311Z,7.72
2023-05-12T11:40:50.507Z,8.52
2023-05-12T11:43:23.905Z,8.57
2023-05-12T11:45:53.684Z,8.73
2023-05-12T11:48:23.527Z,8.27
2023-05-12T11:50:54.512Z,9.48
2023-05-12T11:53:26.516Z,8.98
2023-05-12T11:58:32.666Z,8.88
2023-05-12T12:01:17.572Z,8.88
2023-05-12T12:03:52.904Z,8.63
2023-05-12T12:06:24.663Z,8.43
2023-05-12T12:08:58.722Z,9.50
2023-05-12T12:11:29.634Z,8.55
2023-05-12T12:13:59.600Z,9.50
2023-05-12T12:16:31.406Z,9.15
2023-05-12T12:19:01.399Z,9.35
2023-05-12T12:21:31.414Z,8.70
2023-05-12T12:24:00.584Z,8.30
2023-05-12T12:26:30.278Z,9.55
2023-05-12T12:28:59.675Z,8.63
2023-05-12T12:31:28.913Z,9.15
2023-05-12T12:33:58.239Z,9.05
2023-05-12T12:36:27.436Z,8.27
2023-05-12T12:38:56.948Z,8.93
2023-05-12T12:41:26.894Z,8.95
2023-05-12T12:43:56.450Z,9.43
2023-05-12T12:46:25.737Z,9.73
2023-05-12T12:48:55.767Z,9.70
2023-05-12T12:51:28.444Z,10.23
2023-05-12T12:54:02.620Z,10.15
2023-05-12T12:56:31.950Z,10.73
2023-05-12T12:59:01.145Z,10.35
2023-05-12T13:01:30.951Z,10.75
2023-05-12T13:04:01.356Z,9.75
2023-05-12T13:06:31.485Z,10.48
2023-05-12T13:09:01.400Z,11.32
2023-05-12T13:11:30.756Z,10.75
2023-05-12T13:14:00.682Z,11.93
2023-05-12T13:16:29.857Z,13.30
2023-05-12T13:18:59.184Z,11.95
2023-05-12T13:21:28.803Z,11.13
2023-05-12T13:23:57.821Z,11.23
2023-05-12T13:26:27.116Z,12.40
2023-05-12T13:28:56.571Z,10.60
2023-05-12T13:31:26.003Z,10.70
2023-05-12T13:33:55.597Z,11.30
2023-05-12T13:36:24.852Z,12.00
2023-05-12T13:38:54.217Z,12.25
2023-05-12T13:41:23.732Z,12.13
2023-05-12T13:43:53.260Z,12.45
2023-05-12T13:46:22.652Z,11.45
2023-05-12T13:48:53.641Z,12.68
2023-05-12T13:51:23.426Z,11.73
2023-05-12T13:53:53.776Z,13.68
2023-05-12T13:56:23.798Z,13.10
2023-05-12T13:58:52.873Z,12.48
2023-05-12T14:01:22.806Z,13.05
2023-05-12T14:03:52.146Z,12.82
2023-05-12T14:06:22.018Z,11.65
2023-05-12T14:08:51.163Z,12.10
2023-05-12T14:11:20.820Z,12.63
2023-05-12T14:13:49.919Z,13.13
2023-05-12T14:16:19.165Z,12.07
2023-05-12T14:18:48.622Z,12.23
2023-05-12T14:21:18.106Z,13.40
2023-05-12T14:23:49.335Z,11.88
2023-05-12T14:26:20.966Z,12.82
2023-05-12T14:28:50.410Z,12.93
2023-05-12T14:31:19.753Z,13.00
2023-05-12T14:33:49.481Z,11.82
2023-05-12T14:36:18.714Z,12.85
2023-05-12T14:38:50.304Z,12.02
2023-05-12T14:41:19.642Z,11.95
2023-05-12T14:43:50.101Z,12.27
2023-05-12T14:46:19.462Z,13.13
2023-05-12T14:48:50.033Z,11.93
2023-05-12T14:51:19.465Z,13.63
2023-05-12T14:56:45.049Z,13.95
2023-05-12T14:59:14.461Z,13.45
2023-05-12T15:01:44.326Z,16.55
2023-05-12T15:04:14.660Z,18.38
2023-05-12T15:06:45.173Z,16.23
2023-05-12T15:09:14.890Z,15.30
2023-05-12T15:11:47.645Z,16.08
2023-05-12T15:14:17.226Z,14.95
2023-05-12T15:16:47.252Z,14.63
2023-05-12T15:19:18.629Z,14.68
2023-05-12T15:21:48.013Z,14.77
2023-05-12T15:24:17.724Z,14.38
2023-05-12T15:26:47.355Z,15.20
2023-05-12T15:29:16.718Z,14.25
2023-05-12T15:31:46.611Z,14.52
2023-05-12T15:34:17.155Z,14.77
2023-05-12T15:36:49.665Z,14.93
2023-05-12T15:39:19.809Z,14.67
2023-05-12T15:41:51.677Z,15.20
2023-05-12T15:44:21.641Z,14.75
2023-05-12T15:46:51.718Z,14.20
2023-05-12T15:49:21.396Z,14.07
2023-05-12T15:51:50.560Z,14.23
2023-05-12T15:54:20.291Z,14.60
2023-05-12T15:56:53.816Z,14.15
2023-05-12T15:59:24.271Z,14.88
2023-05-12T16:01:54.039Z,13.60
2023-05-12T16:04:25.700Z,12.35
2023-05-12T16:06:55.452Z,13.45
2023-05-12T16:09:25.394Z,13.80
2023-05-12T16:11:55.908Z,14.75
2023-05-12T16:14:26.872Z,14.02
2023-05-12T16:16:56.638Z,13.48
2023-05-12T16:19:26.417Z,13.02
2023-05-12T16:21:56.276Z,12.07
2023-05-12T16:24:29.542Z,12.75
2023-05-12T16:27:00.376Z,13.40
2023-05-12T16:29:33.177Z,14.73
2023-05-12T16:32:02.986Z,14.38
2023-05-12T16:34:33.163Z,14.52
2023-05-12T16:37:03.334Z,14.38
2023-05-12T16:39:34.837Z,16.88
2023-05-12T16:42:04.746Z,17.60
2023-05-12T16:44:35.286Z,17.00
2023-05-12T16:47:09.964Z,17.65
2023-05-12T16:49:40.162Z,18.58
2023-05-12T16:52:12.377Z,19.23
2023-05-12T16:54:44.257Z,19.30
2023-05-12T16:57:15.077Z,19.98
2023-05-12T16:59:45.571Z,19.10
2023-05-12T17:02:16.306Z,19.90
2023-05-12T17:04:48.018Z,20.83
2023-05-12T17:07:17.937Z,20.40
2023-05-12T17:09:48.865Z,20.30
2023-05-12T17:12:19.255Z,20.95
2023-05-12T17:14:59.316Z,21.67
2023-05-12T17:17:37.583Z,24.13
2023-05-12T17:20:08.902Z,20.83
2023-05-12T17:22:44.472Z,21.17
2023-05-12T17:25:18.955Z,22.88
2023-05-12T17:27:50.946Z,23.58
2023-05-12T17:30:29.530Z,23.73
2023-05-12T17:32:59.972Z,23.58
2023-05-12T17:35:31.058Z,24.25
2023-05-12T17:38:02.332Z,23.42
2023-05-12T17:40:33.195Z,22.85
2023-05-12T17:43:09.230Z,23.35
2023-05-12T17:45:40.112Z,24.13
2023-05-12T17:48:12.432Z,22.30
2023-05-12T17:50:43.575Z,23.83
2023-05-12T17:53:14.551Z,25.27
2023-05-12T17:55:45.819Z,24.05
2023-05-12T17:58:18.300Z,25.98
2023-05-12T18:00:50.363Z,25.42
2023-05-12T18:03:25.263Z,26.15
2023-05-12T18:05:59.489Z,28.02
2023-05-12T18:08:32.644Z,26.80
2023-05-12T18:11:03.446Z,26.67
2023-05-12T18:13:34.644Z,26.55
2023-05-12T18:16:05.306Z,27.88
2023-05-12T18:18:36.580Z,27.10
2023-05-12T18:21:07.866Z,27.10
2023-05-12T18:23:44.998Z,27.30
2023-05-12T18:26:15.526Z,28.33
2023-05-12T18:28:47.169Z,28.30
2023-05-12T18:31:21.234Z,29.88
2023-05-12T18:33:53.491Z,29.25
2023-05-12T18:36:25.078Z,29.70
2023-05-12T18:38:57.191Z,30.52
2023-05-12T18:41:29.378Z,31.13
2023-05-12T18:44:00.155Z,31.58
2023-05-12T18:46:30.754Z,30.35
2023-05-12T18:49:01.818Z,29.88
2023-05-12T18:51:35.580Z,31.60
2023-05-12T18:54:09.938Z,32.33
2023-05-12T18:56:40.725Z,31.25
2023-05-12T18:59:17.888Z,32.75
2023-05-12T19:01:48.527Z,35.42
2023-05-12T19:04:22.637Z,34.08
2023-05-12T19:06:53.083Z,37.35
2023-05-12T19:09:25.046Z,36.65
2023-05-12T19:11:55.493Z,38.07
2023-05-12T19:14:26.704Z,39.50
2023-05-12T19:16:57.922Z,38.25
2023-05-12T19:19:28.794Z,40.63
2023-05-12T19:21:59.287Z,37.83
2023-05-12T19:24:30.812Z,38.42
2023-05-12T19:27:03.302Z,40.95
2023-05-12T19:29:35.035Z,40.42
2023-05-12T19:32:05.865Z,41.47
2023-05-12T19:34:37.102Z,39.85
2023-05-12T19:37:08.313Z,43.67
2023-05-12T19:39:39.153Z,45.33
2023-05-12T19:42:10.591Z,47.85
2023-05-12T19:44:43.608Z,48.17
2023-05-12T19:47:13.890Z,51.97
2023-05-12T19:49:43.974Z,52.22
2023-05-12T19:52:14.781Z,53.28
2023-05-12T19:54:46.165Z,53.60
2023-05-12T19:57:17.150Z,54.97
2023-05-12T19:59:48.027Z,52.47
2023-05-12T20:02:20.077Z,51.20
2023-05-12T20:04:51.505Z,49.95
2023-05-12T20:07:22.104Z,51.28
2023-05-12T20:09:53.954Z,49.88
2023-05-12T20:12:24.152Z,48.95
2023-05-12T20:14:54.445Z,51.17
2023-05-12T20:17:25.844Z,51.45
2023-05-12T20:19:56.758Z,54.30
2023-05-12T20:22:28.132Z,59.25
2023-05-12T20:25:04.959Z,62.60
2023-05-12T20:27:36.039Z,64.35
2023-05-12T20:30:06.698Z,66.35
2023-05-12T20:32:36.575Z,71.22
2023-05-12T20:35:06.938Z,72.40
2023-05-12T20:37:37.405Z,71.97
2023-05-12T20:40:09.727Z,66.72
2023-05-12T20:42:40.470Z,69.43
2023-05-12T20:45:10.789Z,68.82
2023-05-12T20:47:40.212Z,71.55
2023-05-12T20:50:11.432Z,76.15
2023-05-12T20:52:43.107Z,75.50
2023-05-12T20:55:13.299Z,77.35
2023-05-12T20:57:43.355Z,78.35
2023-05-12T21:00:15.098Z,80.05
2023-05-12T21:02:44.798Z,80.97
2023-05-12T21:05:14.380Z,84.10
2023-05-12T21:07:44.721Z,86.45
2023-05-12T21:10:14.047Z,86.65
2023-05-12T21:12:43.665Z,82.93
2023-05-12T21:15:13.637Z,80.43
2023-05-12T21:17:43.228Z,75.63
2023-05-12T21:20:14.016Z,75.10
2023-05-12T21:22:43.978Z,73.30
2023-05-12T21:25:13.049Z,72.65
2023-05-12T21:27:42.675Z,71.88
2023-05-12T21:30:12.938Z,76.05
2023-05-12T21:32:42.217Z,80.07
2023-05-12T21:35:11.752Z,88.13
2023-05-12T21:37:41.104Z,87.57
2023-05-12T21:40:11.413Z,78.57
2023-05-12T21:42:40.786Z,71.90
2023-05-12T21:45:10.691Z,70.05
2023-05-12T21:47:39.818Z,69.47
2023-05-12T21:50:09.387Z,71.53
2023-05-12T21:52:39.069Z,69.47
2023-05-12T21:55:09.008Z,71.40
2023-05-12T21:57:38.522Z,71.30
2023-05-12T22:00:10.738Z,71.72
2023-05-12T22:02:39.960Z,71.22
2023-05-12T22:05:10.041Z,69.25
2023-05-12T22:07:39.463Z,69.53
2023-05-12T22:10:09.219Z,67.78
2023-05-12T22:12:38.970Z,67.78
2023-05-12T22:15:08.704Z,68.10
2023-05-12T22:17:38.008Z,67.72
2023-05-12T22:20:08.138Z,68.72
2023-05-12T22:22:37.789Z,69.38
2023-05-12T22:25:07.397Z,67.63
2023-05-12T22:27:36.675Z,68.55
2023-05-12T22:30:06.175Z,68.38
2023-05-12T22:32:35.519Z,67.97
2023-05-12T22:35:04.930Z,69.93
2023-05-12T22:37:34.492Z,68.78
2023-05-12T22:40:05.086Z,70.10
2023-05-12T22:42:34.533Z,68.45
2023-05-12T22:45:05.891Z,69.85
2023-05-12T22:47:35.157Z,69.93
2023-05-12T22:50:05.083Z,69.22
2023-05-12T22:52:34.580Z,70.90
2023-05-12T22:55:04.921Z,70.65
2023-05-12T22:57:33.980Z,76.70
2023-05-12T23:00:04.959Z,83.43
2023-05-12T23:02:35.070Z,83.45
2023-05-12T23:05:05.411Z,87.22
2023-05-12T23:07:34.646Z,84.25
2023-05-12T23:10:04.149Z,80.07
2023-05-12T23:12:33.767Z,75.25
2023-05-12T23:15:03.863Z,70.40
2023-05-12T23:17:32.935Z,64.25
2023-05-12T23:20:02.575Z,61.30
2023-05-12T23:22:31.987Z,57.05
2023-05-12T23:25:01.630Z,55.85
2023-05-12T23:27:31.065Z,52.55
2023-05-12T23:30:01.277Z,52.03
2023-05-12T23:32:30.564Z,49.17
2023-05-12T23:35:00.189Z,47.60
2023-05-12T23:37:29.595Z,45.40
2023-05-12T23:39:58.875Z,44.55
2023-05-12T23:42:28.159Z,42.47
2023-05-12T23:44:57.645Z,42.08
2023-05-12T23:47:27.140Z,41.65
2023-05-12T23:49:56.452Z,41.05
2023-05-12T23:52:26.628Z,38.95
2023-05-12T23:54:56.110Z,39.78
2023-05-12T23:57:25.550Z,39.25
2023-05-12T23:59:54.736Z,39.42
